createdAt,value
2023-05-19T00:00:31.175Z,71.98
2023-05-19T00:03:38.501Z,71.85
2023-05-19T00:06:19.484Z,72.04
2023-05-19T00:09:25.269Z,72.22
2023-05-19T00:12:06.561Z,71.86
2023-05-19T00:15:20.300Z,72.09
2023-05-19T00:18:02.346Z,72.11
2023-05-19T00:21:12.355Z,72.11
2023-05-19T00:24:19.132Z,72.30
2023-05-19T00:27:38.427Z,72.49
2023-05-19T00:30:33.941Z,72.57
2023-05-19T00:33:39.996Z,72.73
2023-05-19T00:36:41.344Z,72.70
2023-05-19T00:39:47.915Z,72.76
2023-05-19T00:43:19.383Z,72.89
2023-05-19T00:46:15.450Z,73.36
2023-05-19T00:49:03.436Z,72.92
2023-05-19T00:51:59.612Z,72.76
2023-05-19T00:55:10.127Z,72.72
2023-05-19T00:58:15.685Z,72.66
2023-05-19T01:01:27.080Z,72.60
2023-05-19T01:04:29.962Z,72.78
2023-05-19T01:07:32.546Z,72.81
2023-05-19T01:10:34.544Z,72.72
2023-05-19T01:13:45.107Z,72.92
2023-05-19T01:17:18.983Z,72.86
2023-05-19T01:21:05.096Z,72.96
2023-05-19T01:24:30.304Z,72.85
2023-05-19T01:27:51.833Z,73.09
2023-05-19T01:31:13.753Z,73.44
2023-05-19T01:34:36.404Z,73.59
2023-05-19T01:37:24.856Z,73.83
2023-05-19T01:40:25.297Z,74.07
2023-05-19T01:43:01.855Z,74.23
2023-05-19T01:45:49.739Z,74.42
2023-05-19T01:48:41.766Z,74.52
2023-05-19T01:51:41.962Z,74.12
2023-05-19T01:54:48.909Z,74.13
2023-05-19T01:57:51.944Z,74.35
2023-05-19T02:02:02.002Z,74.07
2023-05-19T02:05:10.739Z,73.70
2023-05-19T02:08:34.322Z,74.16
2023-05-19T02:11:57.370Z,74.08
2023-05-19T02:15:32.947Z,74.01
2023-05-19T02:18:22.339Z,73.87
2023-05-19T02:22:03.672Z,74.10
2023-05-19T02:24:56.932Z,74.41
2023-05-19T02:28:15.179Z,74.26
2023-05-19T02:31:28.445Z,74.16
2023-05-19T02:34:29.785Z,74.14
2023-05-19T02:37:15.760Z,74.21
2023-05-19T02:40:18.460Z,74.29
2023-05-19T02:42:47.522Z,74.27
2023-05-19T02:45:29.012Z,74.40
2023-05-19T02:48:11.041Z,74.34
2023-05-19T02:51:18.097Z,74.32
2023-05-19T02:54:17.808Z,74.41
2023-05-19T02:57:27.898Z,74.47
2023-05-19T03:00:57.782Z,74.44
2023-05-19T03:04:02.322Z,74.53
2023-05-19T03:06:49.541Z,74.70
2023-05-19T03:09:49.014Z,74.91
2023-05-19T03:13:00.183Z,74.84
2023-05-19T03:16:02.428Z,75.02
2023-05-19T03:19:01.776Z,75.08
2023-05-19T03:22:06.724Z,75.17
2023-05-19T03:25:33.576Z,75.38
2023-05-19T03:28:40.806Z,75.24
2023-05-19T03:32:07.921Z,75.73
2023-05-19T03:35:13.567Z,75.91
2023-05-19T03:38:12.858Z,75.63
2023-05-19T03:41:01.927Z,75.78
2023-05-19T03:43:42.702Z,75.77
2023-05-19T03:46:41.177Z,76.25
2023-05-19T03:49:50.506Z,76.25
2023-05-19T03:53:05.899Z,75.72
2023-05-19T03:55:52.507Z,75.80
2023-05-19T03:58:50.268Z,75.70
2023-05-19T04:01:49.065Z,75.78
2023-05-19T04:04:48.312Z,76.06
2023-05-19T04:07:51.478Z,76.08
2023-05-19T04:10:35.632Z,75.90
2023-05-19T04:13:12.799Z,75.92
2023-05-19T04:16:23.447Z,75.66
2023-05-19T04:19:07.544Z,75.91
2023-05-19T04:22:07.869Z,76.06
2023-05-19T04:24:37.342Z,75.70
2023-05-19T04:27:16.797Z,75.81
2023-05-19T04:30:22.806Z,75.82
2023-05-19T04:33:21.442Z,75.72
2023-05-19T04:36:19.905Z,75.75
2023-05-19T04:38:49.219Z,75.48
2023-05-19T04:41:30.214Z,75.54
2023-05-19T04:44:10.040Z,75.68
2023-05-19T04:46:43.090Z,75.34
2023-05-19T04:49:19.717Z,75.20
2023-05-19T04:52:23.014Z,74.84
2023-05-19T04:55:14.616Z,74.54
2023-05-19T04:58:15.573Z,74.25
2023-05-19T05:00:49.783Z,74.00
2023-05-19T05:03:34.606Z,73.54
2023-05-19T05:06:29.024Z,73.38
2023-05-19T05:09:05.311Z,73.20
2023-05-19T05:11:58.404Z,73.02
2023-05-19T05:14:42.760Z,72.78
2023-05-19T05:17:41.280Z,72.68
2023-05-19T05:20:31.634Z,72.59
2023-05-19T05:23:30.418Z,72.50
2023-05-19T05:26:23.531Z,72.49
2023-05-19T05:29:03.394Z,72.44
2023-05-19T05:31:55.677Z,72.39
2023-05-19T05:34:41.298Z,72.16
2023-05-19T05:37:16.042Z,72.18
2023-05-19T05:40:45.775Z,72.17
2023-05-19T05:43:20.272Z,72.14
2023-05-19T05:46:30.293Z,72.00
2023-05-19T05:49:10.445Z,71.85
2023-05-19T05:52:05.693Z,71.74
2023-05-19T05:55:06.411Z,71.66
2023-05-19T05:57:54.267Z,71.54
2023-05-19T06:00:45.682Z,71.55
2023-05-19T06:03:37.035Z,71.57
2023-05-19T06:06:38.602Z,71.57
2023-05-19T06:09:30.216Z,71.58
2023-05-19T06:12:19.093Z,71.70
2023-05-19T06:15:16.905Z,71.83
2023-05-19T06:18:11.848Z,71.85
2023-05-19T06:20:45.632Z,71.86
2023-05-19T06:23:29.355Z,71.78
2023-05-19T06:26:38.908Z,71.71
2023-05-19T06:29:40.092Z,71.69
2023-05-19T06:32:19.401Z,71.68
2023-05-19T06:34:59.558Z,71.60
2023-05-19T06:37:31.824Z,71.50
2023-05-19T06:40:10.556Z,71.46
2023-05-19T06:42:42.513Z,71.29
2023-05-19T06:45:55.207Z,71.21
2023-05-19T06:48:27.498Z,71.09
2023-05-19T06:51:04.867Z,71.06
2023-05-19T06:53:45.340Z,71.11
2023-05-19T06:56:52.421Z,70.94
2023-05-19T06:59:41.283Z,70.84
2023-05-19T07:02:26.189Z,70.85
2023-05-19T07:05:27.403Z,70.80
2023-05-19T07:08:07.036Z,70.82
2023-05-19T07:10:50.305Z,70.78
2023-05-19T07:13:44.551Z,70.69
2023-05-19T07:16:26.742Z,70.64
2023-05-19T07:19:15.686Z,70.73
2023-05-19T07:22:03.569Z,70.79
2023-05-19T07:24:48.416Z,70.77
2023-05-19T07:27:34.827Z,70.71
2023-05-19T07:30:11.959Z,70.88
2023-05-19T07:33:08.685Z,70.86
2023-05-19T07:35:46.236Z,71.02
2023-05-19T07:38:21.807Z,71.43
2023-05-19T07:40:56.308Z,71.60
2023-05-19T07:43:32.708Z,71.51
2023-05-19T07:46:22.773Z,71.43
2023-05-19T07:49:25.432Z,71.38
2023-05-19T07:52:08.127Z,71.40
2023-05-19T07:54:46.595Z,71.43
2023-05-19T07:57:35.629Z,71.48
2023-05-19T08:00:17.950Z,71.50
2023-05-19T08:02:55.002Z,71.61
2023-05-19T08:05:33.031Z,71.54
2023-05-19T08:08:02.982Z,71.59
2023-05-19T08:10:41.152Z,71.62
2023-05-19T08:13:49.831Z,71.58
2023-05-19T08:16:22.024Z,71.63
2023-05-19T08:19:11.125Z,71.75
2023-05-19T08:22:01.573Z,71.56
2023-05-19T08:24:58.055Z,71.38
2023-05-19T08:27:27.032Z,71.20
2023-05-19T08:30:01.986Z,70.71
2023-05-19T08:32:48.841Z,70.42
2023-05-19T08:35:32.832Z,70.23
2023-05-19T08:38:07.464Z,70.03
2023-05-19T08:40:42.650Z,69.94
2023-05-19T08:43:24.585Z,69.82
2023-05-19T08:46:02.910Z,69.80
2023-05-19T08:48:44.816Z,69.78
2023-05-19T08:51:39.602Z,69.68
2023-05-19T08:54:20.226Z,69.59
2023-05-19T08:56:58.977Z,69.53
2023-05-19T08:59:35.339Z,69.35
2023-05-19T09:02:14.243Z,69.22
2023-05-19T09:04:51.513Z,69.23
2023-05-19T09:07:25.959Z,69.23
2023-05-19T09:10:01.241Z,69.06
2023-05-19T09:12:51.440Z,69.07
2023-05-19T09:15:31.111Z,68.99
2023-05-19T09:18:21.236Z,68.82
2023-05-19T09:20:49.946Z,68.66
2023-05-19T09:23:28.899Z,68.66
2023-05-19T09:26:08.072Z,68.65
2023-05-19T09:29:04.122Z,68.53
2023-05-19T09:31:35.385Z,68.47
2023-05-19T09:34:22.608Z,67.91
2023-05-19T09:36:53.936Z,67.79
2023-05-19T09:39:26.351Z,67.64
2023-05-19T09:42:06.969Z,67.62
2023-05-19T09:44:45.696Z,67.59
2023-05-19T09:47:16.836Z,67.34
2023-05-19T09:49:54.129Z,67.07
2023-05-19T09:52:26.255Z,66.71
2023-05-19T09:55:05.113Z,66.42
2023-05-19T09:57:38.008Z,66.19
2023-05-19T10:00:18.463Z,65.98
2023-05-19T10:02:48.837Z,65.82
2023-05-19T10:05:23.899Z,65.51
2023-05-19T10:07:57.215Z,65.16
2023-05-19T10:10:28.031Z,64.79
2023-05-19T10:12:59.229Z,64.64
2023-05-19T10:15:28.394Z,64.51
2023-05-19T10:17:57.303Z,64.22
2023-05-19T10:20:27.837Z,63.99
2023-05-19T10:23:05.512Z,63.93
2023-05-19T10:25:44.081Z,63.80
2023-05-19T10:28:28.422Z,63.72
2023-05-19T10:31:04.761Z,63.76
2023-05-19T10:34:11.012Z,63.72
2023-05-19T10:36:49.118Z,63.58
2023-05-19T10:39:33.277Z,63.43
2023-05-19T10:42:15.905Z,63.22
2023-05-19T10:45:28.014Z,63.13
2023-05-19T10:47:59.886Z,63.17
2023-05-19T10:50:39.296Z,63.08
2023-05-19T10:53:22.733Z,63.19
2023-05-19T10:56:05.114Z,63.21
2023-05-19T10:58:46.008Z,63.18
2023-05-19T11:01:27.505Z,63.27
2023-05-19T11:04:12.414Z,63.26
2023-05-19T11:07:03.928Z,63.26
2023-05-19T11:09:41.472Z,63.08
2023-05-19T11:12:11.272Z,62.94
2023-05-19T11:14:41.554Z,62.89
2023-05-19T11:17:15.468Z,62.80
2023-05-19T11:19:55.497Z,62.64
2023-05-19T11:22:27.638Z,62.83
2023-05-19T11:24:57.156Z,62.98
2023-05-19T11:27:38.636Z,63.22
2023-05-19T11:30:15.013Z,63.61
2023-05-19T11:32:47.752Z,63.77
2023-05-19T11:35:19.640Z,63.82
2023-05-19T11:37:52.716Z,63.90
2023-05-19T11:40:22.854Z,64.13
2023-05-19T11:42:52.624Z,64.24
2023-05-19T11:45:28.925Z,64.50
2023-05-19T11:48:01.986Z,64.78
2023-05-19T11:50:33.082Z,64.79
2023-05-19T11:53:02.130Z,64.64
2023-05-19T11:55:34.846Z,64.60
2023-05-19T11:58:05.754Z,64.57
2023-05-19T12:00:41.143Z,64.72
2023-05-19T12:03:11.011Z,64.74
2023-05-19T12:05:48.782Z,64.73
2023-05-19T12:08:19.278Z,64.77
2023-05-19T12:10:52.484Z,64.96
2023-05-19T12:13:23.480Z,64.92
2023-05-19T12:15:53.640Z,64.82
2023-05-19T12:18:22.927Z,64.74
2023-05-19T12:20:55.433Z,64.64
2023-05-19T12:23:25.826Z,64.57
2023-05-19T12:25:56.021Z,64.43
2023-05-19T12:28:25.566Z,64.52
2023-05-19T12:30:59.013Z,64.56
2023-05-19T12:33:29.647Z,64.62
2023-05-19T12:35:58.451Z,64.73
2023-05-19T12:38:29.785Z,64.74
2023-05-19T12:41:01.757Z,64.78
2023-05-19T12:43:31.052Z,64.80
2023-05-19T12:46:12.752Z,64.85
2023-05-19T12:48:47.018Z,65.07
2023-05-19T12:51:26.721Z,65.21
2023-05-19T12:53:57.807Z,65.39
2023-05-19T12:56:28.718Z,65.46
2023-05-19T12:58:57.376Z,65.56
2023-05-19T13:01:30.994Z,65.84
2023-05-19T13:04:04.693Z,65.84
2023-05-19T13:06:50.063Z,65.94
2023-05-19T13:09:26.029Z,65.98
2023-05-19T13:11:59.110Z,66.12
2023-05-19T13:14:38.852Z,66.21
2023-05-19T13:17:14.075Z,66.25
2023-05-19T13:19:48.963Z,66.36
2023-05-19T13:22:26.509Z,66.36
2023-05-19T13:25:00.003Z,66.36
2023-05-19T13:27:41.082Z,66.45
2023-05-19T13:30:16.151Z,66.56
2023-05-19T13:32:48.832Z,66.72
2023-05-19T13:35:29.774Z,66.87
2023-05-19T13:38:04.424Z,67.18
2023-05-19T13:40:35.747Z,67.23
2023-05-19T13:43:06.229Z,67.29
2023-05-19T13:45:46.646Z,67.34
2023-05-19T13:48:16.201Z,67.33
2023-05-19T13:50:56.087Z,67.42
2023-05-19T13:53:26.821Z,67.43
2023-05-19T13:56:00.971Z,67.50
2023-05-19T13:58:37.184Z,67.59
2023-05-19T14:01:13.712Z,67.72
2023-05-19T14:03:49.131Z,67.65
2023-05-19T14:06:29.078Z,67.70
2023-05-19T14:09:09.734Z,67.66
2023-05-19T14:11:39.653Z,67.77
2023-05-19T14:14:09.420Z,67.60
2023-05-19T14:16:55.144Z,67.61
2023-05-19T14:19:30.586Z,67.47
2023-05-19T14:21:59.474Z,66.98
2023-05-19T14:24:33.507Z,66.75
2023-05-19T14:27:02.471Z,66.78
2023-05-19T14:29:37.629Z,66.63
2023-05-19T14:32:18.306Z,66.47
2023-05-19T14:34:55.056Z,66.37
2023-05-19T14:37:35.446Z,66.25
2023-05-19T14:40:08.527Z,66.08
2023-05-19T14:42:43.275Z,65.95
2023-05-19T14:45:15.546Z,65.93
2023-05-19T14:47:51.945Z,66.00
2023-05-19T14:50:31.655Z,65.87
2023-05-19T14:53:02.945Z,65.70
2023-05-19T14:55:32.475Z,65.57
2023-05-19T14:58:01.374Z,65.40
2023-05-19T15:00:30.714Z,65.06
2023-05-19T15:03:01.725Z,64.88
2023-05-19T15:05:34.090Z,64.87
2023-05-19T15:08:06.096Z,64.77
2023-05-19T15:10:35.016Z,64.78
2023-05-19T15:13:04.962Z,65.00
2023-05-19T15:15:33.760Z,64.82
2023-05-19T15:18:03.300Z,64.54
2023-05-19T15:20:33.188Z,64.48
2023-05-19T15:23:06.361Z,64.51
2023-05-19T15:25:36.450Z,64.56
2023-05-19T15:28:08.870Z,64.62
2023-05-19T15:30:38.658Z,64.46
2023-05-19T15:33:08.553Z,64.42
2023-05-19T15:35:38.470Z,64.42
2023-05-19T15:38:08.096Z,64.43
2023-05-19T15:40:38.174Z,64.49
2023-05-19T15:43:07.323Z,64.59
2023-05-19T15:45:36.097Z,64.65
2023-05-19T15:48:06.655Z,64.62
2023-05-19T15:50:36.937Z,64.56
2023-05-19T15:53:08.103Z,64.59
2023-05-19T15:55:37.909Z,64.69
2023-05-19T15:58:09.155Z,64.92
2023-05-19T16:00:38.051Z,65.05
2023-05-19T16:03:09.870Z,65.10
2023-05-19T16:05:47.541Z,65.19
2023-05-19T16:08:21.745Z,65.45
2023-05-19T16:10:52.150Z,65.53
2023-05-19T16:13:21.771Z,65.68
2023-05-19T16:15:53.211Z,65.88
2023-05-19T16:18:25.495Z,65.86
2023-05-19T16:20:57.798Z,65.89
2023-05-19T16:23:31.170Z,65.89
2023-05-19T16:26:02.448Z,65.96
2023-05-19T16:28:33.333Z,66.17
2023-05-19T16:31:03.260Z,66.29
2023-05-19T16:33:36.407Z,66.48
2023-05-19T16:36:08.866Z,66.48
2023-05-19T16:38:43.146Z,66.49
2023-05-19T16:41:22.878Z,66.60
2023-05-19T16:43:57.103Z,66.63
2023-05-19T16:46:31.977Z,66.75
2023-05-19T16:49:05.641Z,66.84
2023-05-19T16:51:39.053Z,67.01
2023-05-19T16:54:10.578Z,67.16
2023-05-19T16:56:41.682Z,67.20
2023-05-19T16:59:11.632Z,67.23
2023-05-19T17:01:41.822Z,67.27
2023-05-19T17:04:11.158Z,67.39
2023-05-19T17:06:44.049Z,67.40
2023-05-19T17:09:17.037Z,67.46
2023-05-19T17:11:48.901Z,67.65
2023-05-19T17:14:22.756Z,67.85
2023-05-19T17:16:55.935Z,67.83
2023-05-19T17:19:28.408Z,67.91
2023-05-19T17:22:00.335Z,68.11
2023-05-19T17:24:34.333Z,68.13
2023-05-19T17:27:08.478Z,68.35
2023-05-19T17:29:44.653Z,68.48
2023-05-19T17:32:17.911Z,68.50
2023-05-19T17:34:52.773Z,68.71
2023-05-19T17:37:29.599Z,68.94
2023-05-19T17:40:02.166Z,69.08
2023-05-19T17:42:32.836Z,69.10
2023-05-19T17:45:07.846Z,69.22
2023-05-19T17:47:40.350Z,69.16
2023-05-19T17:50:11.096Z,69.21
2023-05-19T17:52:42.162Z,69.23
2023-05-19T17:55:14.325Z,69.38
2023-05-19T17:57:46.701Z,69.50
2023-05-19T18:00:20.033Z,69.48
2023-05-19T18:02:51.061Z,69.78
2023-05-19T18:05:28.037Z,69.98
2023-05-19T18:08:02.424Z,70.07
2023-05-19T18:10:37.508Z,70.19
2023-05-19T18:13:10.847Z,70.29
2023-05-19T18:15:41.660Z,70.27
2023-05-19T18:18:19.455Z,70.32
2023-05-19T18:20:53.138Z,70.27
2023-05-19T18:23:27.443Z,70.38
2023-05-19T18:25:58.330Z,70.45
2023-05-19T18:28:30.185Z,70.79
2023-05-19T18:31:05.931Z,70.83
2023-05-19T18:33:39.961Z,70.77
2023-05-19T18:36:12.902Z,70.91
2023-05-19T18:38:42.419Z,71.01
2023-05-19T18:41:12.161Z,71.07
2023-05-19T18:43:41.771Z,70.97
2023-05-19T18:46:14.069Z,71.06
2023-05-19T18:48:44.383Z,71.17
2023-05-19T18:51:19.027Z,71.15
2023-05-19T19:20:53.892Z,71.21
2023-05-19T19:23:31.663Z,71.75
2023-05-19T19:26:09.476Z,72.01
2023-05-19T19:28:49.101Z,72.68
2023-05-19T19:31:20.369Z,72.92
2023-05-19T19:34:05.010Z,73.08
2023-05-19T19:36:42.627Z,73.18
2023-05-19T19:39:17.213Z,73.27
2023-05-19T19:41:46.527Z,73.13
2023-05-19T19:44:15.671Z,73.42
2023-05-19T19:47:00.613Z,73.29
2023-05-19T19:49:33.064Z,73.37
2023-05-19T19:52:07.049Z,73.26
2023-05-19T19:54:39.666Z,73.52
2023-05-19T19:57:11.201Z,73.53
2023-05-19T19:59:44.837Z,73.39
2023-05-19T20:02:18.292Z,73.47
2023-05-19T20:04:48.465Z,73.73
2023-05-19T20:07:29.875Z,73.78
2023-05-19T20:10:02.413Z,73.89
2023-05-19T20:12:31.911Z,74.13
2023-05-19T20:15:05.601Z,74.34
2023-05-19T20:17:35.281Z,74.18
2023-05-19T20:20:10.774Z,74.13
2023-05-19T20:22:47.005Z,74.34
2023-05-19T20:25:30.873Z,74.21
2023-05-19T20:28:03.484Z,74.15
2023-05-19T20:30:37.391Z,74.30
2023-05-19T20:33:08.655Z,74.22
2023-05-19T20:35:41.959Z,74.35
2023-05-19T20:38:21.154Z,74.24
2023-05-19T20:40:55.927Z,74.42
2023-05-19T20:43:33.278Z,74.48
2023-05-19T20:46:15.538Z,74.47
2023-05-19T20:48:51.572Z,74.57
2023-05-19T20:51:24.264Z,74.94
2023-05-19T20:54:01.768Z,74.84
2023-05-19T20:56:32.850Z,74.79
2023-05-19T20:59:04.974Z,74.88
2023-05-19T21:01:34.619Z,75.00
2023-05-19T21:04:12.424Z,75.13
2023-05-19T21:06:47.209Z,75.07
2023-05-19T21:09:20.687Z,75.17
2023-05-19T21:11:55.436Z,75.39
2023-05-19T21:14:28.627Z,75.33
2023-05-19T21:16:58.290Z,75.47
2023-05-19T21:19:31.531Z,75.53
2023-05-19T21:22:01.111Z,75.60
2023-05-19T21:24:31.362Z,75.81
2023-05-19T21:27:03.460Z,76.03
2023-05-19T21:29:34.211Z,76.09
2023-05-19T21:32:06.735Z,76.26
2023-05-19T21:34:36.649Z,76.18
2023-05-19T21:37:23.124Z,76.42
2023-05-19T21:39:55.723Z,76.57
2023-05-19T21:42:30.757Z,76.65
2023-05-19T21:45:00.241Z,76.53
2023-05-19T21:47:32.649Z,76.72
2023-05-19T21:50:05.427Z,76.70
2023-05-19T21:52:37.447Z,76.71
2023-05-19T21:55:11.188Z,76.91
2023-05-19T21:58:03.432Z,76.82
2023-05-19T22:00:36.954Z,76.80
2023-05-19T22:03:05.805Z,76.97
2023-05-19T22:05:38.503Z,76.85
2023-05-19T22:08:09.538Z,77.03
2023-05-19T22:10:58.713Z,77.11
2023-05-19T22:13:41.303Z,77.11
2023-05-19T22:16:10.368Z,77.18
2023-05-19T22:18:49.576Z,77.33
2023-05-19T22:21:21.916Z,77.48
2023-05-19T22:24:10.497Z,77.45
2023-05-19T22:26:55.260Z,77.32
2023-05-19T22:29:30.372Z,77.51
2023-05-19T22:32:18.765Z,77.42
2023-05-19T22:35:10.433Z,77.48
2023-05-19T22:37:48.945Z,77.59
2023-05-19T22:40:41.197Z,77.98
2023-05-19T22:43:34.665Z,77.66
2023-05-19T22:46:09.616Z,77.69
2023-05-19T22:48:57.206Z,77.91
2023-05-19T22:51:32.363Z,77.80
2023-05-19T22:54:29.404Z,77.92
2023-05-19T22:57:32.185Z,77.99
2023-05-19T23:00:22.384Z,78.01
2023-05-19T23:02:54.672Z,78.02
2023-05-19T23:05:35.307Z,78.08
2023-05-19T23:08:23.479Z,78.18
2023-05-19T23:11:23.038Z,78.15
2023-05-19T23:13:57.319Z,78.24
2023-05-19T23:16:34.608Z,78.36
2023-05-19T23:19:48.691Z,78.43
2023-05-19T23:23:00.748Z,78.32
2023-05-19T23:25:33.405Z,78.41
2023-05-19T23:28:11.281Z,78.57
2023-05-19T23:31:09.192Z,78.57
2023-05-19T23:33:51.485Z,78.53
2023-05-19T23:36:23.261Z,78.62
2023-05-19T23:38:54.817Z,78.56
2023-05-19T23:41:35.065Z,78.84
2023-05-19T23:44:21.773Z,78.72
2023-05-19T23:47:02.920Z,78.85
2023-05-19T23:49:59.813Z,78.76
2023-05-19T23:52:33.814Z,78.81
2023-05-19T23:55:17.487Z,79.00
2023-05-19T23:58:02.210Z,79.36
